createdAt,value
2023-04-14T00:02:21.502Z,100785.09
2023-04-14T00:04:55.102Z,100783.63
2023-04-14T00:07:28.370Z,100783.13
2023-04-14T00:10:01.312Z,100781.44
2023-04-14T00:12:28.140Z,100784.06
2023-04-14T00:15:01.386Z,100780.50
2023-04-14T00:17:28.178Z,100774.22
2023-04-14T00:20:01.292Z,100773.25
2023-04-14T00:22:28.090Z,100775.03
2023-04-14T00:25:01.257Z,100774.22
2023-04-14T00:27:28.647Z,100781.19
2023-04-14T00:29:55.341Z,100784.59
2023-04-14T00:32:28.401Z,100785.34
2023-04-14T00:34:57.118Z,100781.00
2023-04-14T00:37:31.484Z,100788.09
2023-04-14T00:40:11.386Z,100789.09
2023-04-14T00:42:54.300Z,100795.34
2023-04-14T00:45:21.400Z,100792.97
2023-04-14T00:47:57.441Z,100798.56
2023-04-14T00:50:24.701Z,100795.19
2023-04-14T00:52:59.385Z,100796.28
2023-04-14T00:55:32.531Z,100794.53
2023-04-14T00:58:08.298Z,100800.75
2023-04-14T01:00:38.350Z,100806.19
2023-04-14T01:03:13.603Z,100810.63
2023-04-14T01:05:47.373Z,100811.53
2023-04-14T01:08:21.303Z,100808.88
2023-04-14T01:11:02.631Z,100810.78
2023-04-14T01:13:52.271Z,100815.19
2023-04-14T01:16:32.159Z,100822.31
2023-04-14T01:19:11.374Z,100825.13
2023-04-14T01:21:43.960Z,100839.28
2023-04-14T01:24:23.338Z,100835.88
2023-04-14T01:27:03.334Z,100831.63
2023-04-14T01:29:50.346Z,100837.81
2023-04-14T01:32:22.306Z,100837.22
2023-04-14T01:35:03.365Z,100836.44
2023-04-14T01:37:41.380Z,100834.03
2023-04-14T01:40:20.678Z,100830.78
2023-04-14T01:43:09.369Z,100835.41
2023-04-14T01:45:50.513Z,100841.00
2023-04-14T01:48:24.288Z,100844.78
2023-04-14T01:50:58.346Z,100825.13
2023-04-14T01:53:27.649Z,100832.16
2023-04-14T01:56:02.268Z,100839.25
2023-04-14T01:58:37.280Z,100845.41
2023-04-14T02:01:12.591Z,100843.81
2023-04-14T02:03:40.346Z,100832.84
2023-04-14T02:06:15.368Z,100852.94
2023-04-14T02:08:50.339Z,100846.97
2023-04-14T02:11:26.380Z,100845.34
2023-04-14T02:14:01.337Z,100844.72
2023-04-14T02:16:30.040Z,100849.97
2023-04-14T02:19:05.344Z,100854.63
2023-04-14T02:21:41.373Z,100849.72
2023-04-14T02:24:14.358Z,100846.44
2023-04-14T02:26:59.111Z,100848.53
2023-04-14T02:29:34.352Z,100847.88
2023-04-14T02:32:11.391Z,100857.53
2023-04-14T02:35:10.396Z,100858.69
2023-04-14T02:37:41.132Z,100867.63
2023-04-14T02:40:28.348Z,100860.81
2023-04-14T02:43:05.889Z,100861.59
2023-04-14T02:45:48.432Z,100866.09
2023-04-14T02:48:18.107Z,100871.53
2023-04-14T02:50:54.380Z,100856.09
2023-04-14T02:53:30.299Z,100863.25
2023-04-14T02:56:05.346Z,100865.06
2023-04-14T02:58:33.094Z,100867.75
2023-04-14T03:01:07.308Z,100872.25
2023-04-14T03:03:37.755Z,100862.63
2023-04-14T03:06:15.357Z,100867.00
2023-04-14T03:08:44.444Z,100866.31
2023-04-14T03:11:21.316Z,100873.09
2023-04-14T03:13:59.309Z,100874.09
2023-04-14T03:16:34.451Z,100865.50
2023-04-14T03:19:10.445Z,100873.50
2023-04-14T03:21:37.976Z,100865.09
2023-04-14T03:24:13.398Z,100878.25
2023-04-14T03:26:43.253Z,100868.72
2023-04-14T03:29:17.364Z,100878.47
2023-04-14T03:31:45.034Z,100870.63
2023-04-14T03:34:22.352Z,100868.22
2023-04-14T03:36:52.864Z,100879.84
2023-04-14T03:39:29.363Z,100878.19
2023-04-14T03:42:10.431Z,100871.16
2023-04-14T03:44:40.099Z,100872.03
2023-04-14T03:47:15.405Z,100870.38
2023-04-14T03:49:53.320Z,100881.03
2023-04-14T03:52:23.129Z,100880.25
2023-04-14T03:55:00.355Z,100880.38
2023-04-14T03:57:36.303Z,100870.28
2023-04-14T04:00:12.400Z,100876.16
2023-04-14T04:02:40.477Z,100883.91
2023-04-14T04:05:09.716Z,100877.09
2023-04-14T04:07:45.406Z,100884.25
2023-04-14T04:10:20.409Z,100876.56
2023-04-14T04:12:49.240Z,100886.16
2023-04-14T04:15:16.746Z,100887.00
2023-04-14T04:17:50.456Z,100889.63
2023-04-14T04:20:25.475Z,100895.88
2023-04-14T04:23:02.411Z,100882.09
2023-04-14T04:25:32.597Z,100894.16
2023-04-14T04:28:01.351Z,100893.34
2023-04-14T04:30:36.387Z,100886.47
2023-04-14T04:33:10.435Z,100892.72
2023-04-14T04:35:44.401Z,100895.34
2023-04-14T04:38:27.636Z,100890.16
2023-04-14T04:41:07.342Z,100897.16
2023-04-14T04:43:40.445Z,100899.03
2023-04-14T04:46:51.448Z,100897.22
2023-04-14T04:49:24.442Z,100894.69
2023-04-14T04:51:57.425Z,100899.94
2023-04-14T04:54:24.167Z,100888.84
2023-04-14T04:56:57.461Z,100907.28
2023-04-14T04:59:24.728Z,100913.44
2023-04-14T05:01:58.452Z,100911.91
2023-04-14T05:04:25.497Z,100907.22
2023-04-14T05:06:58.390Z,100911.47
2023-04-14T05:09:25.092Z,100907.94
2023-04-14T05:11:58.424Z,100900.84
2023-04-14T05:14:31.425Z,100902.31
2023-04-14T05:17:04.364Z,100904.78
2023-04-14T05:19:31.034Z,100915.06
2023-04-14T05:22:04.368Z,100914.78
2023-04-14T05:24:37.425Z,100911.78
2023-04-14T05:27:13.203Z,100904.69
2023-04-14T05:29:47.443Z,100914.88
2023-04-14T05:32:14.888Z,100918.94
2023-04-14T05:34:48.367Z,100917.75
2023-04-14T05:37:15.035Z,100913.22
2023-04-14T05:39:55.418Z,100918.19
2023-04-14T05:42:22.138Z,100914.34
2023-04-14T05:44:55.473Z,100909.69
2023-04-14T05:47:22.198Z,100919.09
2023-04-14T05:49:55.401Z,100910.13
2023-04-14T05:52:29.446Z,100916.09
2023-04-14T05:55:02.499Z,100921.09
2023-04-14T05:57:29.257Z,100923.50
2023-04-14T06:00:02.450Z,100919.75
2023-04-14T06:02:35.582Z,100927.44
2023-04-14T06:05:03.001Z,100920.13
2023-04-14T06:07:36.420Z,100913.56
2023-04-14T06:10:03.720Z,100926.09
2023-04-14T06:12:37.457Z,100918.53
2023-04-14T06:15:05.891Z,100916.44
2023-04-14T06:17:40.507Z,100921.66
2023-04-14T06:20:08.215Z,100909.81
2023-04-14T06:22:41.465Z,100928.13
2023-04-14T06:25:08.581Z,100922.06
2023-04-14T06:27:35.949Z,100915.06
2023-04-14T06:30:09.447Z,100916.06
2023-04-14T06:32:36.355Z,100911.91
2023-04-14T06:35:19.034Z,100913.94
2023-04-14T06:37:52.674Z,100903.63
2023-04-14T06:40:32.555Z,100903.06
2023-04-14T06:42:59.287Z,100899.81
2023-04-14T06:45:32.623Z,100900.19
2023-04-14T06:48:05.669Z,100891.84
2023-04-14T06:50:39.434Z,100896.53
2023-04-14T06:53:07.291Z,100892.28
2023-04-14T06:55:42.413Z,100889.03
2023-04-14T06:58:09.274Z,100892.47
2023-04-14T07:00:36.356Z,100884.28
2023-04-14T07:03:09.556Z,100895.28
2023-04-14T07:05:43.473Z,100898.56
2023-04-14T07:08:10.326Z,100892.91
2023-04-14T07:10:43.583Z,100888.44
2023-04-14T07:13:16.969Z,100885.53
2023-04-14T07:15:48.019Z,100894.78
2023-04-14T07:18:21.540Z,100888.31
2023-04-14T07:20:51.487Z,100887.44
2023-04-14T07:23:24.471Z,100887.41
2023-04-14T07:25:52.854Z,100891.06
2023-04-14T07:28:20.757Z,100895.31
2023-04-14T07:30:54.489Z,100893.66
2023-04-14T07:33:29.428Z,100889.44
2023-04-14T07:36:04.147Z,100891.28
2023-04-14T07:38:40.461Z,100895.88
2023-04-14T07:41:14.460Z,100889.63
2023-04-14T07:43:47.497Z,100888.47
2023-04-14T07:46:14.275Z,100884.88
2023-04-14T07:48:47.461Z,100888.38
2023-04-14T07:51:20.408Z,100882.00
2023-04-14T07:53:53.443Z,100884.88
2023-04-14T07:56:20.151Z,100885.19
2023-04-14T07:58:53.430Z,100886.94
2023-04-14T08:01:26.483Z,100890.97
2023-04-14T08:03:53.294Z,100885.13
2023-04-14T08:06:27.444Z,100882.56
2023-04-14T08:08:54.225Z,100882.97
2023-04-14T08:11:27.429Z,100875.56
2023-04-14T08:13:54.177Z,100878.06
2023-04-14T08:16:27.498Z,100874.81
2023-04-14T08:19:00.756Z,100879.78
2023-04-14T08:21:28.053Z,100878.25
2023-04-14T08:24:01.589Z,100876.41
2023-04-14T08:26:34.769Z,100875.91
2023-04-14T08:29:08.520Z,100885.75
2023-04-14T08:31:35.434Z,100883.44
2023-04-14T08:34:08.439Z,100877.56
2023-04-14T08:36:35.323Z,100876.69
2023-04-14T08:39:08.511Z,100878.50
2023-04-14T08:41:42.426Z,100877.09
2023-04-14T08:44:16.451Z,100882.44
2023-04-14T08:46:43.823Z,100884.78
2023-04-14T08:49:22.446Z,100886.38
2023-04-14T08:51:50.503Z,100888.31
2023-04-14T08:54:25.540Z,100882.47
2023-04-14T08:56:53.970Z,100879.47
2023-04-14T08:59:28.432Z,100882.22
2023-04-14T09:01:56.144Z,100881.63
2023-04-14T09:04:30.764Z,100880.91
2023-04-14T09:06:57.615Z,100883.28
2023-04-14T09:09:31.498Z,100876.00
2023-04-14T09:11:58.800Z,100883.25
2023-04-14T09:14:32.594Z,100872.38
2023-04-14T09:17:05.603Z,100873.00
2023-04-14T09:20:38.138Z,100870.47
2023-04-14T09:22:34.564Z,100875.00
2023-04-14T09:25:01.452Z,100876.69
2023-04-14T09:27:35.516Z,100878.19
2023-04-14T09:30:02.749Z,100865.00
2023-04-14T09:32:36.511Z,100874.63
2023-04-14T09:35:03.611Z,100873.41
2023-04-14T09:37:50.522Z,100872.00
2023-04-14T09:40:37.540Z,100877.09
2023-04-14T09:43:19.502Z,100878.41
2023-04-14T09:45:46.313Z,100873.50
2023-04-14T09:48:22.499Z,100857.22
2023-04-14T09:51:01.751Z,100867.25
2023-04-14T09:53:42.555Z,100869.28
2023-04-14T09:56:18.523Z,100865.22
2023-04-14T09:58:52.522Z,100868.47
2023-04-14T10:01:20.462Z,100868.06
2023-04-14T10:03:55.507Z,100867.84
2023-04-14T10:06:23.969Z,100870.72
2023-04-14T10:08:59.663Z,100865.00
2023-04-14T10:11:36.474Z,100862.19
2023-04-14T10:14:05.471Z,100868.69
2023-04-14T10:16:39.724Z,100864.28
2023-04-14T10:19:06.797Z,100860.16
2023-04-14T10:21:40.574Z,100853.84
2023-04-14T10:24:07.467Z,100849.31
2023-04-14T10:26:42.610Z,100856.28
2023-04-14T10:29:09.452Z,100848.47
2023-04-14T10:31:49.615Z,100842.50
2023-04-14T10:34:23.612Z,100844.94
2023-04-14T10:36:50.388Z,100842.00
2023-04-14T10:39:32.547Z,100839.19
2023-04-14T10:42:12.640Z,100840.13
2023-04-14T10:44:45.582Z,100837.78
2023-04-14T10:47:25.210Z,100832.84
2023-04-14T10:50:02.526Z,100827.94
2023-04-14T10:52:35.625Z,100834.06
2023-04-14T10:55:16.694Z,100826.22
2023-04-14T10:57:44.788Z,100826.06
2023-04-14T11:00:27.623Z,100819.84
2023-04-14T11:03:05.675Z,100825.13
2023-04-14T11:05:40.549Z,100817.66
2023-04-14T11:08:26.716Z,100819.16
2023-04-14T11:11:04.445Z,100811.13
2023-04-14T11:13:39.667Z,100813.63
2023-04-14T11:16:09.523Z,100797.09
2023-04-14T11:18:51.587Z,100799.72
2023-04-14T11:21:24.563Z,100807.75
2023-04-14T11:23:57.669Z,100812.16
2023-04-14T11:26:24.706Z,100793.53
2023-04-14T11:28:59.834Z,100794.19
2023-04-14T11:31:27.815Z,100803.94
2023-04-14T11:34:01.604Z,100796.91
2023-04-14T11:36:34.705Z,100788.81
2023-04-14T11:39:02.613Z,100795.41
2023-04-14T11:41:43.614Z,100790.81
2023-04-14T11:44:19.728Z,100791.72
2023-04-14T11:46:53.621Z,100790.72
2023-04-14T11:49:22.206Z,100788.50
2023-04-14T11:51:55.596Z,100779.63
2023-04-14T11:54:23.428Z,100786.88
2023-04-14T11:56:56.668Z,100786.28
2023-04-14T11:59:23.525Z,100775.13
2023-04-14T12:01:58.692Z,100773.16
2023-04-14T12:04:32.092Z,100784.91
2023-04-14T12:07:05.595Z,100781.34
2023-04-14T12:09:32.765Z,100787.03
2023-04-14T12:12:05.688Z,100777.44
2023-04-14T12:14:32.600Z,100782.09
2023-04-14T12:16:59.484Z,100773.22
2023-04-14T12:19:32.872Z,100772.50
2023-04-14T12:21:59.741Z,100774.13
2023-04-14T12:24:40.612Z,100769.03
2023-04-14T12:27:09.393Z,100773.97
2023-04-14T12:29:43.623Z,100764.63
2023-04-14T12:32:12.358Z,100767.41
2023-04-14T12:34:45.657Z,100766.72
2023-04-14T12:37:12.911Z,100761.94
2023-04-14T12:40:12.654Z,100767.31
2023-04-14T12:42:54.753Z,100770.09
2023-04-14T12:45:28.669Z,100761.22
2023-04-14T12:47:56.986Z,100758.78
2023-04-14T12:50:34.746Z,100759.59
2023-04-14T12:53:01.793Z,100745.03
2023-04-14T12:55:37.641Z,100750.53
2023-04-14T12:58:11.701Z,100751.25
2023-04-14T13:00:40.490Z,100747.88
2023-04-14T13:03:14.718Z,100742.28
2023-04-14T13:05:48.686Z,100733.28
2023-04-14T13:08:21.593Z,100743.84
2023-04-14T13:10:54.657Z,100743.19
2023-04-14T13:13:28.785Z,100748.06
2023-04-14T13:16:13.386Z,100742.00
2023-04-14T13:18:49.769Z,100722.16
2023-04-14T13:21:17.003Z,100744.84
2023-04-14T13:23:50.636Z,100732.22
2023-04-14T13:26:17.406Z,100729.34
2023-04-14T13:28:50.696Z,100739.16
2023-04-14T13:31:18.602Z,100727.16
2023-04-14T13:33:51.650Z,100726.41
2023-04-14T13:36:24.684Z,100720.78
2023-04-14T13:38:57.628Z,100724.00
2023-04-14T13:41:31.768Z,100723.34
2023-04-14T13:43:58.482Z,100718.94
2023-04-14T13:46:40.309Z,100715.72
2023-04-14T13:49:07.885Z,100709.13
2023-04-14T13:51:41.696Z,100713.66
2023-04-14T13:54:14.686Z,100709.81
2023-04-14T13:56:47.641Z,100698.78
2023-04-14T13:59:16.427Z,100699.03
2023-04-14T14:01:49.872Z,100707.81
2023-04-14T14:04:16.769Z,100705.91
2023-04-14T14:06:49.680Z,100701.16
2023-04-14T14:09:22.667Z,100704.19
2023-04-14T14:11:49.496Z,100696.59
2023-04-14T14:14:16.217Z,100691.16
2023-04-14T14:16:49.704Z,100690.97
2023-04-14T14:19:18.281Z,100694.28
2023-04-14T14:21:51.708Z,100689.84
2023-04-14T14:24:31.953Z,100683.63
2023-04-14T14:26:58.653Z,100689.72
2023-04-14T14:29:31.925Z,100697.50
2023-04-14T14:31:58.575Z,100695.44
2023-04-14T14:34:31.939Z,100685.66
2023-04-14T14:36:58.702Z,100694.25
2023-04-14T14:39:32.670Z,100681.63
2023-04-14T14:42:06.012Z,100680.41
2023-04-14T14:44:39.642Z,100682.28
2023-04-14T14:47:06.982Z,100672.53
2023-04-14T14:49:48.907Z,100674.94
2023-04-14T14:52:34.017Z,100670.47
2023-04-14T14:55:07.703Z,100670.28
2023-04-14T14:57:41.788Z,100673.00
2023-04-14T15:00:09.454Z,100672.63
2023-04-14T15:02:42.856Z,100667.72
2023-04-14T15:05:16.707Z,100664.22
2023-04-14T15:07:50.672Z,100667.84
2023-04-14T15:10:17.482Z,100664.72
2023-04-14T15:12:50.711Z,100659.88
2023-04-14T15:15:19.941Z,100666.34
2023-04-14T15:17:53.720Z,100662.47
2023-04-14T15:20:21.124Z,100652.22
2023-04-14T15:22:54.720Z,100653.28
2023-04-14T15:25:21.647Z,100654.59
2023-04-14T15:27:54.756Z,100664.06
2023-04-14T15:30:23.991Z,100662.41
2023-04-14T15:32:57.804Z,100667.59
2023-04-14T15:35:25.053Z,100659.41
2023-04-14T15:37:58.745Z,100665.44
2023-04-14T15:40:45.759Z,100659.72
2023-04-14T15:43:18.744Z,100657.09
2023-04-14T15:45:45.866Z,100658.34
2023-04-14T15:48:20.100Z,100643.88
2023-04-14T15:50:53.802Z,100651.56
2023-04-14T15:53:20.645Z,100643.88
2023-04-14T15:55:55.710Z,100646.34
2023-04-14T15:58:29.797Z,100646.84
2023-04-14T16:01:03.771Z,100646.81
2023-04-14T16:03:36.999Z,100650.22
2023-04-14T16:06:13.791Z,100649.28
2023-04-14T16:08:40.672Z,100646.28
2023-04-14T16:11:14.844Z,100642.66
2023-04-14T16:13:41.679Z,100648.41
2023-04-14T16:16:08.461Z,100647.06
2023-04-14T16:18:43.803Z,100653.19
2023-04-14T16:21:10.748Z,100654.41
2023-04-14T16:23:43.744Z,100650.06
2023-04-14T16:26:10.823Z,100660.81
2023-04-14T16:28:43.776Z,100655.44
2023-04-14T16:31:10.619Z,100659.28
2023-04-14T16:33:44.861Z,100654.63
2023-04-14T16:36:11.867Z,100658.78
2023-04-14T16:38:45.883Z,100655.41
2023-04-14T16:41:33.075Z,100653.72
2023-04-14T16:44:06.876Z,100650.50
2023-04-14T16:46:33.960Z,100657.00
2023-04-14T16:49:06.797Z,100660.69
2023-04-14T16:51:33.920Z,100652.66
2023-04-14T16:54:06.776Z,100645.16
2023-04-14T16:56:36.832Z,100653.25
2023-04-14T16:59:10.795Z,100660.75
2023-04-14T17:01:43.829Z,100653.31
2023-04-14T17:04:18.029Z,100649.38
2023-04-14T17:06:52.744Z,100656.97
2023-04-14T17:09:19.452Z,100649.75
2023-04-14T17:11:52.742Z,100652.22
2023-04-14T17:14:19.426Z,100642.94
2023-04-14T17:16:46.273Z,100646.31
2023-04-14T17:19:19.725Z,100652.84
2023-04-14T17:21:46.578Z,100653.75
2023-04-14T17:24:19.751Z,100651.63
2023-04-14T17:26:52.749Z,100659.09
2023-04-14T17:29:19.404Z,100662.69
2023-04-14T17:31:52.757Z,100659.94
2023-04-14T17:34:20.763Z,100660.16
2023-04-14T17:36:54.826Z,100660.72
2023-04-14T17:39:26.940Z,100661.47
2023-04-14T17:42:06.807Z,100663.22
2023-04-14T17:44:41.930Z,100660.06
2023-04-14T17:47:15.456Z,100677.44
2023-04-14T17:49:49.810Z,100680.31
2023-04-14T17:52:17.842Z,100680.50
2023-04-14T17:54:52.753Z,100674.50
2023-04-14T17:57:19.913Z,100685.94
2023-04-14T17:59:52.766Z,100684.28
2023-04-14T18:02:19.923Z,100690.66
2023-04-14T18:04:53.756Z,100696.88
2023-04-14T18:07:26.841Z,100699.00
2023-04-14T18:09:56.428Z,100696.59
2023-04-14T18:12:29.836Z,100695.19
2023-04-14T18:14:56.692Z,100701.66
2023-04-14T18:17:29.864Z,100707.16
2023-04-14T18:19:58.282Z,100705.59
2023-04-14T18:22:32.903Z,100711.06
2023-04-14T18:24:59.587Z,100703.16
2023-04-14T18:30:03.230Z,100701.88
2023-04-14T18:32:37.934Z,100705.63
2023-04-14T18:35:04.877Z,100715.31
2023-04-14T18:37:31.947Z,100704.16
2023-04-14T18:40:04.946Z,100705.53
2023-04-14T18:42:44.794Z,100712.47
2023-04-14T18:45:12.313Z,100714.97
2023-04-14T18:47:45.838Z,100716.47
2023-04-14T18:50:18.868Z,100717.25
2023-04-14T18:52:45.622Z,100711.47
2023-04-14T18:55:12.366Z,100718.44
2023-04-14T18:57:45.848Z,100713.56
2023-04-14T19:00:23.820Z,100715.66
2023-04-14T19:02:50.552Z,100726.50
2023-04-14T19:05:23.839Z,100719.53
2023-04-14T19:07:50.674Z,100723.91
2023-04-14T19:10:24.838Z,100723.97
2023-04-14T19:12:57.861Z,100725.09
2023-04-14T19:15:26.745Z,100723.31
2023-04-14T19:17:59.887Z,100727.31
2023-04-14T19:20:33.829Z,100730.59
2023-04-14T19:23:00.708Z,100733.06
2023-04-14T19:25:27.537Z,100736.41
2023-04-14T19:28:00.850Z,100732.94
2023-04-14T19:30:28.839Z,100745.03
2023-04-14T19:33:01.850Z,100738.84
2023-04-14T19:35:30.917Z,100746.34
2023-04-14T19:37:58.125Z,100750.47
2023-04-14T19:40:31.880Z,100751.06
2023-04-14T19:43:05.270Z,100744.88
2023-04-14T19:45:38.904Z,100753.09
2023-04-14T19:48:19.933Z,100752.84
2023-04-14T19:50:57.877Z,100755.84
2023-04-14T19:53:31.951Z,100757.28
2023-04-14T19:55:58.801Z,100750.59
2023-04-14T19:58:34.059Z,100751.09
2023-04-14T20:01:01.636Z,100744.38
2023-04-14T20:03:35.168Z,100758.78
2023-04-14T20:06:02.036Z,100753.78
2023-04-14T20:08:35.940Z,100751.69
2023-04-14T20:11:02.617Z,100760.25
2023-04-14T20:13:38.851Z,100753.81
2023-04-14T20:16:12.996Z,100756.91
2023-04-14T20:18:40.695Z,100760.13
2023-04-14T20:21:13.841Z,100754.41
2023-04-14T20:23:46.988Z,100754.47
2023-04-14T20:26:14.076Z,100752.22
2023-04-14T20:28:48.927Z,100759.53
2023-04-14T20:31:15.900Z,100763.72
2023-04-14T20:33:49.953Z,100755.56
2023-04-14T20:36:23.930Z,100759.53
2023-04-14T20:38:50.841Z,100762.47
2023-04-14T20:41:30.866Z,100760.28
2023-04-14T20:44:04.834Z,100768.56
2023-04-14T20:46:38.989Z,100771.53
2023-04-14T20:49:05.657Z,100772.69
2023-04-14T20:51:38.863Z,100767.28
2023-04-14T20:54:11.912Z,100780.44
2023-04-14T20:56:38.688Z,100782.47
2023-04-14T20:59:11.955Z,100777.59
2023-04-14T21:01:38.929Z,100770.91
2023-04-14T21:04:12.070Z,100775.78
2023-04-14T21:06:38.823Z,100777.16
2023-04-14T21:09:05.880Z,100776.50
2023-04-14T21:11:38.944Z,100778.94
2023-04-14T21:15:30.764Z,100783.31
2023-04-14T21:16:59.480Z,100782.66
2023-04-14T21:19:34.102Z,100790.06
2023-04-14T21:22:00.865Z,100784.69
2023-04-14T21:24:33.940Z,100785.94
2023-04-14T21:27:03.866Z,100796.56
2023-04-14T21:29:36.944Z,100790.81
2023-04-14T21:32:09.888Z,100787.75
2023-04-14T21:34:36.677Z,100790.13
2023-04-14T21:37:10.975Z,100800.28
2023-04-14T21:39:43.886Z,100802.75
2023-04-14T21:42:23.952Z,100800.63
2023-04-14T21:44:50.895Z,100799.34
2023-04-14T21:47:24.975Z,100798.06
2023-04-14T21:49:51.744Z,100799.31
2023-04-14T21:52:25.954Z,100793.59
2023-04-14T21:54:52.632Z,100800.16
2023-04-14T21:57:42.946Z,100786.78
2023-04-14T22:00:16.320Z,100803.53
2023-04-14T22:02:53.157Z,100801.28
2023-04-14T22:05:27.088Z,100802.34
2023-04-14T22:07:55.242Z,100799.69
2023-04-14T22:10:28.933Z,100804.91
2023-04-14T22:12:55.641Z,100797.97
2023-04-14T22:15:28.996Z,100799.06
2023-04-14T22:17:56.037Z,100804.25
2023-04-14T22:20:31.100Z,100811.34
2023-04-14T22:22:57.937Z,100806.16
2023-04-14T22:25:30.910Z,100808.25
2023-04-14T22:27:58.049Z,100815.63
2023-04-14T22:30:30.977Z,100816.81
2023-04-14T22:32:57.845Z,100814.56
2023-04-14T22:35:31.154Z,100811.34
2023-04-14T22:37:58.136Z,100815.91
2023-04-14T22:40:32.042Z,100815.25
2023-04-14T22:43:14.942Z,100829.56
2023-04-14T22:45:42.281Z,100821.91
2023-04-14T22:48:16.948Z,100826.44
2023-04-14T22:50:43.828Z,100823.25
2023-04-14T22:53:16.945Z,100820.91
2023-04-14T22:55:44.362Z,100821.84
2023-04-14T22:58:22.992Z,100820.03
2023-04-14T23:00:49.736Z,100824.09
2023-04-14T23:03:16.914Z,100818.81
2023-04-14T23:05:50.963Z,100819.63
2023-04-14T23:08:17.667Z,100820.97
2023-04-14T23:10:50.955Z,100835.94
2023-04-14T23:13:23.987Z,100826.59
2023-04-14T23:15:57.013Z,100825.28
2023-04-14T23:18:25.180Z,100829.72
2023-04-14T23:20:58.952Z,100829.72
2023-04-14T23:23:25.914Z,100830.94
2023-04-14T23:26:05.898Z,100822.84
2023-04-14T23:28:32.505Z,100832.78
2023-04-14T23:31:06.038Z,100839.31
2023-04-14T23:33:32.908Z,100828.44
2023-04-14T23:36:06.034Z,100845.06
2023-04-14T23:38:32.978Z,100837.31
2023-04-14T23:41:07.455Z,100838.34
2023-04-14T23:43:40.346Z,100837.78
2023-04-14T23:46:14.050Z,100830.13
2023-04-14T23:48:40.770Z,100837.34
2023-04-14T23:51:19.685Z,100832.25
2023-04-14T23:53:53.982Z,100833.38
2023-04-14T23:56:27.986Z,100828.28
2023-04-14T23:59:02.150Z,100830.94
